Time;durP1;ratioP1;P1;durP2;ratioP2;P2;SDS_P1;SDS_P2;PMS_P1;PMS_P2;Temp;Humidity;BMP_temperature;BMP_pressure;BME280_temperature;BME280_humidity;BME280_pressure;Samples;Min_cycle;Max_cycle;Signal;HPM_P1;HPM_P2
2023/12/01 00:01:45;;;;;;;96.37;42.00;;;-1.90;99.90;;;;;;2584960;54;20053;31
2023/12/01 00:04:20;;;;;;;97.85;40.30;;;-2.00;99.90;;;;;;2683661;39;21263;31
2023/12/01 00:06:55;;;;;;;91.63;40.93;;;-1.80;99.90;;;;;;2585305;54;20026;31
2023/12/01 00:09:28;;;;;;;91.20;39.03;;;-1.90;99.90;;;;;;2585809;54;22664;31
2023/12/01 00:12:02;;;;;;;98.65;41.55;;;-1.30;99.90;;;;;;2585523;54;20026;31
2023/12/01 00:14:38;;;;;;;96.70;44.07;;;-1.90;99.90;;;;;;2585348;54;20126;31
2023/12/01 00:17:15;;;;;;;110.07;47.53;;;-1.90;99.90;;;;;;2585085;54;20082;31
2023/12/01 00:19:50;;;;;;;112.15;46.80;;;-2.00;99.90;;;;;;2585332;54;20042;31
2023/12/01 00:22:23;;;;;;;108.55;48.50;;;-1.90;99.90;;;;;;2585499;54;22485;31
2023/12/01 00:24:56;;;;;;;109.80;48.60;;;-1.90;99.90;;;;;;2603698;46;21171;31
2023/12/01 00:27:29;;;;;;;109.95;47.30;;;-1.80;99.90;;;;;;2585344;54;20081;31
2023/12/01 00:30:04;;;;;;;103.10;45.00;;;-1.90;99.90;;;;;;2585358;54;20026;31
2023/12/01 00:35:10;;;;;;;111.28;47.50;;;-1.80;99.90;;;;;;2585242;54;20875;31
2023/12/01 00:37:44;;;;;;;116.40;48.47;;;-1.80;99.90;;;;;;2585432;54;20917;31
2023/12/01 00:40:18;;;;;;;93.63;41.58;;;-1.80;99.90;;;;;;2585220;54;20033;31
2023/12/01 00:42:51;;;;;;;98.53;43.43;;;-1.80;99.90;;;;;;2585188;54;20057;31
2023/12/01 00:45:26;;;;;;;107.30;45.50;;;-1.70;99.90;;;;;;2585072;54;20246;31
2023/12/01 00:48:01;;;;;;;151.85;60.10;;;-1.70;99.90;;;;;;2585129;54;20033;31
2023/12/01 00:50:37;;;;;;;178.20;72.25;;;-1.70;99.90;;;;;;2584967;54;20037;31
2023/12/01 00:53:12;;;;;;;171.27;67.80;;;-1.80;99.90;;;;;;2603465;46;20031;31
2023/12/01 00:55:47;;;;;;;146.23;58.25;;;-1.80;99.90;;;;;;2585183;54;20930;31
2023/12/01 00:58:22;;;;;;;137.15;53.40;;;-1.80;99.90;;;;;;2585187;54;20046;31
2023/12/01 01:00:55;;;;;;;112.95;45.63;;;-1.80;99.90;;;;;;2585757;54;21122;31
2023/12/01 01:03:30;;;;;;;110.03;44.23;;;-1.80;99.90;;;;;;2603621;46;20116;31
2023/12/01 01:06:06;;;;;;;115.72;47.15;;;-1.70;99.90;;;;;;2585202;54;22523;31
2023/12/01 01:08:41;;;;;;;96.75;40.28;;;-1.80;99.90;;;;;;2585153;54;20961;31
2023/12/01 01:11:14;;;;;;;94.65;40.45;;;-1.90;99.90;;;;;;2683168;39;22442;31
2023/12/01 01:13:49;;;;;;;98.97;39.72;;;-1.90;99.90;;;;;;2603767;46;20026;31
2023/12/01 01:16:24;;;;;;;92.33;39.50;;;-1.90;99.90;;;;;;2584820;54;20907;31
2023/12/01 01:18:58;;;;;;;107.30;43.00;;;-1.90;99.90;;;;;;2701402;39;22330;31
2023/12/01 01:21:34;;;;;;;99.80;43.70;;;-2.00;99.90;;;;;;2585342;54;20023;31
2023/12/01 01:24:08;;;;;;;94.43;42.45;;;-2.00;99.90;;;;;;2683133;39;21094;31
2023/12/01 01:26:43;;;;;;;98.35;40.85;;;-1.80;99.90;;;;;;2584937;54;20031;31
2023/12/01 01:29:16;;;;;;;84.03;36.00;;;-2.10;99.90;;;;;;2584690;54;20060;31
2023/12/01 01:31:49;;;;;;;89.18;38.55;;;-2.00;99.90;;;;;;2682984;39;21310;31
2023/12/01 01:34:24;;;;;;;82.30;34.07;;;-2.10;99.90;;;;;;2602993;47;20053;31
2023/12/01 01:36:59;;;;;;;87.82;36.75;;;-2.00;99.90;;;;;;2585051;54;21163;31
2023/12/01 01:39:33;;;;;;;91.20;38.00;;;-2.10;99.90;;;;;;2584723;54;20802;31
2023/12/01 01:42:06;;;;;;;96.00;39.30;;;-1.90;99.90;;;;;;2585014;54;20049;31
2023/12/01 01:44:40;;;;;;;94.05;41.25;;;-2.20;99.90;;;;;;2585069;54;20090;31
2023/12/01 01:47:13;;;;;;;98.25;42.80;;;-2.20;99.90;;;;;;2585409;54;21437;31
2023/12/01 01:49:46;;;;;;;104.90;45.95;;;-2.30;99.90;;;;;;2682651;39;21431;31
2023/12/01 01:52:21;;;;;;;130.70;53.20;;;-2.30;99.90;;;;;;2585038;54;20986;31
2023/12/01 01:54:56;;;;;;;119.80;52.25;;;-2.30;99.90;;;;;;2602905;47;20987;31
2023/12/01 01:57:29;;;;;;;132.52;54.05;;;-2.00;99.90;;;;;;2584986;54;20129;31
2023/12/01 02:00:05;;;;;;;129.95;51.60;;;-2.20;99.90;;;;;;2585007;54;21049;31
2023/12/01 02:02:47;;;;;;;107.50;46.75;;;-2.20;99.90;;;;;;2585214;54;21142;31
2023/12/01 02:05:22;;;;;;;103.07;46.45;;;-2.20;99.90;;;;;;2585093;54;20927;31
2023/12/01 02:07:58;;;;;;;106.20;44.95;;;-2.20;99.90;;;;;;2585570;54;21258;31
2023/12/01 02:10:34;;;;;;;100.85;44.17;;;-2.20;99.90;;;;;;2585629;54;20034;31
2023/12/01 02:13:10;;;;;;;108.72;44.22;;;-2.20;99.90;;;;;;2604076;46;20034;31
2023/12/01 02:15:45;;;;;;;98.13;44.20;;;-2.20;99.90;;;;;;2585498;54;20026;31
2023/12/01 02:18:24;;;;;;;111.60;44.80;;;-2.30;99.90;;;;;;2585657;54;19935;31
2023/12/01 02:20:59;;;;;;;99.93;42.60;;;-2.20;99.90;;;;;;2604253;46;20042;31
2023/12/01 02:23:35;;;;;;;114.88;48.85;;;-2.30;99.90;;;;;;2585764;54;20251;31
2023/12/01 02:26:10;;;;;;;116.10;50.63;;;-2.80;99.90;;;;;;2585212;54;20825;31
2023/12/01 02:28:43;;;;;;;127.60;54.70;;;-2.20;99.90;;;;;;2585545;54;20057;31
2023/12/01 02:31:18;;;;;;;108.43;47.22;;;-2.20;99.90;;;;;;2585549;54;20093;31
2023/12/01 02:33:53;;;;;;;99.05;42.85;;;-2.20;99.90;;;;;;2585448;54;20919;31
2023/12/01 02:36:28;;;;;;;102.88;43.55;;;-2.20;99.90;;;;;;2585720;54;20840;31
2023/12/01 02:39:07;;;;;;;93.93;42.60;;;-2.20;99.90;;;;;;2604040;46;20092;31
2023/12/01 02:41:40;;;;;;;101.75;42.05;;;-2.20;99.90;;;;;;2585842;54;20933;31
2023/12/01 02:44:13;;;;;;;108.43;47.03;;;-2.20;99.90;;;;;;2585577;54;20030;31
2023/12/01 02:46:46;;;;;;;114.82;47.15;;;-2.10;99.90;;;;;;2603993;46;20937;31
2023/12/01 02:49:20;;;;;;;111.97;47.27;;;-2.10;99.90;;;;;;2585156;54;20928;31
2023/12/01 02:51:55;;;;;;;113.78;44.47;;;-2.10;99.90;;;;;;2585229;54;20936;31
2023/12/01 02:54:30;;;;;;;103.97;44.43;;;-2.00;99.90;;;;;;2603795;46;20160;31
2023/12/01 02:57:03;;;;;;;128.07;56.58;;;-2.00;99.90;;;;;;2585739;54;20806;31
2023/12/01 02:59:36;;;;;;;126.55;51.90;;;-2.00;99.90;;;;;;2585727;54;21008;31
2023/12/01 03:02:09;;;;;;;120.40;50.72;;;-2.00;99.90;;;;;;2585583;54;20034;31
2023/12/01 03:04:42;;;;;;;106.65;44.90;;;-2.00;99.90;;;;;;2683559;39;21060;31
2023/12/01 03:07:16;;;;;;;94.80;40.65;;;-2.00;99.90;;;;;;2585372;54;20890;31
2023/12/01 03:09:54;;;;;;;92.00;39.60;;;-2.00;99.90;;;;;;2604235;46;20030;31
2023/12/01 03:12:27;;;;;;;113.30;43.83;;;-2.00;99.90;;;;;;2585577;54;20031;31
2023/12/01 03:15:02;;;;;;;103.45;41.90;;;-2.00;99.90;;;;;;2585285;54;20027;31
2023/12/01 03:17:43;;;;;;;90.30;39.20;;;-2.00;99.90;;;;;;2603963;47;20938;31
2023/12/01 03:20:18;;;;;;;100.75;40.80;;;-1.90;99.90;;;;;;2585438;54;20026;31
2023/12/01 03:22:52;;;;;;;96.70;42.08;;;-1.90;99.90;;;;;;2585289;54;20896;31
2023/12/01 03:25:28;;;;;;;96.90;42.63;;;-2.00;99.90;;;;;;2585528;54;20037;31
2023/12/01 03:28:01;;;;;;;95.78;41.78;;;-1.80;99.90;;;;;;2603889;46;20821;31
2023/12/01 03:30:34;;;;;;;98.47;42.97;;;-1.90;99.90;;;;;;2585488;54;20042;31
2023/12/01 03:33:07;;;;;;;107.90;43.35;;;-1.90;99.90;;;;;;2585997;54;22614;31
2023/12/01 03:35:40;;;;;;;109.80;44.15;;;-1.90;99.90;;;;;;2585476;54;20033;31
2023/12/01 03:38:13;;;;;;;94.10;41.15;;;-1.90;99.90;;;;;;2585583;54;20027;31
2023/12/01 03:40:49;;;;;;;104.70;42.65;;;-1.90;99.90;;;;;;2683228;39;21412;31
2023/12/01 03:43:23;;;;;;;97.85;40.95;;;-1.80;99.90;;;;;;2585597;54;20061;31
2023/12/01 03:45:58;;;;;;;94.40;40.95;;;-1.90;99.90;;;;;;2585353;54;20914;31
2023/12/01 03:48:33;;;;;;;109.05;44.22;;;-1.90;99.90;;;;;;2585450;54;20194;31
2023/12/01 03:51:11;;;;;;;104.37;43.30;;;-1.90;99.90;;;;;;2585351;54;20049;31
2023/12/01 03:53:44;;;;;;;93.30;40.83;;;-1.90;99.90;;;;;;2585550;54;20030;31
2023/12/01 03:56:20;;;;;;;104.60;42.00;;;-1.80;99.90;;;;;;2585457;54;20873;31
2023/12/01 03:58:56;;;;;;;96.83;39.70;;;-1.20;99.90;;;;;;2585225;54;20117;31
2023/12/01 04:01:29;;;;;;;;;;;-1.90;99.90;;;;;;2684092;39;22254;31
2023/12/01 04:04:02;;;;;;;89.90;36.90;;;-1.80;99.90;;;;;;2585297;54;20827;31
2023/12/01 04:06:38;;;;;;;88.25;37.50;;;-1.80;99.90;;;;;;2602823;46;20061;31
2023/12/01 04:09:12;;;;;;;99.60;40.95;;;-1.90;99.90;;;;;;2585358;54;20027;31
2023/12/01 04:11:48;;;;;;;89.85;38.75;;;-1.80;99.90;;;;;;2683401;39;21122;31
2023/12/01 04:14:22;;;;;;;106.93;43.67;;;-1.80;99.90;;;;;;2585211;54;21518;31
2023/12/01 04:16:55;;;;;;;119.82;49.22;;;-1.90;99.90;;;;;;2585462;54;22103;31
2023/12/01 04:19:28;;;;;;;123.65;50.13;;;-1.80;99.90;;;;;;2585435;54;20833;31
2023/12/01 04:22:02;;;;;;;120.47;47.23;;;-1.80;99.90;;;;;;2585024;54;20496;31
2023/12/01 04:24:37;;;;;;;112.50;48.45;;;-1.90;99.90;;;;;;2585312;54;20036;31
2023/12/01 04:27:14;;;;;;;111.85;46.13;;;-1.80;99.90;;;;;;2585080;54;20051;31
2023/12/01 04:29:47;;;;;;;102.07;43.43;;;-1.80;99.90;;;;;;2603793;46;22364;31
2023/12/01 04:32:20;;;;;;;101.25;43.15;;;-1.80;99.90;;;;;;2585216;54;20893;31
2023/12/01 04:34:54;;;;;;;94.60;42.80;;;-1.80;99.90;;;;;;2585094;54;20982;31
2023/12/01 04:37:27;;;;;;;104.87;43.63;;;-1.70;99.90;;;;;;2585326;54;20029;31
2023/12/01 04:40:03;;;;;;;97.60;42.03;;;-1.70;99.90;;;;;;2683212;39;21092;31
2023/12/01 04:42:40;;;;;;;102.13;41.00;;;-1.70;99.90;;;;;;2585293;54;20030;31
2023/12/01 04:45:15;;;;;;;92.30;41.65;;;-1.70;99.90;;;;;;2585150;54;20130;31
2023/12/01 04:47:50;;;;;;;93.20;41.10;;;-1.80;99.90;;;;;;2585440;54;20035;31
2023/12/01 04:50:24;;;;;;;97.00;42.22;;;-1.70;99.90;;;;;;2585561;54;20952;31
2023/12/01 04:52:57;;;;;;;95.75;40.90;;;-1.70;99.90;;;;;;2585115;54;20026;31
2023/12/01 04:55:31;;;;;;;102.28;40.67;;;-1.70;99.90;;;;;;2585434;54;22426;31
2023/12/01 04:58:07;;;;;;;90.88;39.83;;;-1.70;99.90;;;;;;2585367;54;20920;31
2023/12/01 05:00:42;;;;;;;101.55;39.05;;;-1.70;99.90;;;;;;2754533;31;21225;31
2023/12/01 05:03:17;;;;;;;92.20;41.30;;;-1.70;99.90;;;;;;2585215;54;20030;31
2023/12/01 05:05:50;;;;;;;108.30;47.20;;;-1.70;99.90;;;;;;2585270;54;21208;31
2023/12/01 05:08:23;;;;;;;132.70;55.35;;;-1.70;99.90;;;;;;2585339;54;20031;31
2023/12/01 05:10:59;;;;;;;130.77;58.40;;;-1.70;99.90;;;;;;2584718;54;20974;31
2023/12/01 05:13:36;;;;;;;111.83;51.47;;;-1.70;99.90;;;;;;2585231;54;22109;31
2023/12/01 05:16:10;;;;;;;123.77;55.27;;;-1.70;99.90;;;;;;2585061;54;21008;31
2023/12/01 05:18:45;;;;;;;110.82;48.50;;;-1.60;99.90;;;;;;2584641;54;20247;31
2023/12/01 05:21:18;;;;;;;111.05;47.30;;;-1.60;99.90;;;;;;2603599;46;21974;31
2023/12/01 05:23:52;;;;;;;90.90;39.65;;;-1.60;99.90;;;;;;2754110;31;21216;31
2023/12/01 05:26:35;;;;;;;104.63;41.63;;;-1.60;99.90;;;;;;2585326;54;20925;31
2023/12/01 05:29:13;;;;;;;88.80;39.90;;;-1.60;99.90;;;;;;2585091;54;20027;31
2023/12/01 05:31:53;;;;;;;84.30;38.50;;;-1.60;99.90;;;;;;2683158;39;22421;31
2023/12/01 05:34:30;;;;;;;92.07;40.65;;;-1.50;99.90;;;;;;2683236;39;21042;31
2023/12/01 05:37:07;;;;;;;96.85;42.25;;;-1.50;99.90;;;;;;2585313;54;20898;31
2023/12/01 05:39:44;;;;;;;86.35;40.03;;;-1.50;99.90;;;;;;2603943;47;20959;31
2023/12/01 05:42:19;;;;;;;100.35;43.95;;;-1.50;99.90;;;;;;2586113;54;20034;31
2023/12/01 05:44:55;;;;;;;100.70;42.35;;;-1.50;99.90;;;;;;2585727;54;20061;31
2023/12/01 05:47:28;;;;;;;88.85;39.25;;;-1.40;99.90;;;;;;2585970;54;20944;31
2023/12/01 05:50:01;;;;;;;86.50;38.13;;;-1.40;99.90;;;;;;2585908;54;20922;31
2023/12/01 05:52:34;;;;;;;88.75;39.05;;;-1.40;99.90;;;;;;2586133;54;20027;31
2023/12/01 05:55:10;;;;;;;89.45;37.30;;;-1.40;99.90;;;;;;2585957;54;20928;31
2023/12/01 05:57:52;;;;;;;87.68;37.35;;;-1.50;99.90;;;;;;2585828;54;20105;31
2023/12/01 06:00:31;;;;;;;89.70;36.55;;;-1.40;99.90;;;;;;2585815;54;20052;31
2023/12/01 06:03:06;;;;;;;82.45;35.40;;;-1.40;99.90;;;;;;2585848;54;21253;31
2023/12/01 06:05:39;;;;;;;82.95;35.50;;;-1.50;99.90;;;;;;2585799;54;20030;31
2023/12/01 06:08:14;;;;;;;82.95;34.50;;;-1.50;99.90;;;;;;2585624;54;20894;31
2023/12/01 06:10:52;;;;;;;80.10;35.10;;;-1.50;99.90;;;;;;2585831;54;20964;31
2023/12/01 06:13:25;;;;;;;92.45;37.40;;;-1.50;99.90;;;;;;2585890;54;20034;31
2023/12/01 06:16:00;;;;;;;84.40;37.40;;;-1.50;99.90;;;;;;2702398;39;21098;31
2023/12/01 06:18:36;;;;;;;91.35;37.70;;;-1.50;99.90;;;;;;2585742;54;21027;31
2023/12/01 06:21:10;;;;;;;87.18;38.70;;;-1.50;99.90;;;;;;2585804;54;20916;31
2023/12/01 06:23:43;;;;;;;88.85;38.00;;;-1.60;99.90;;;;;;2585887;54;22717;31
2023/12/01 06:26:18;;;;;;;94.90;40.20;;;-1.60;99.90;;;;;;2585579;54;20030;31
2023/12/01 06:28:51;;;;;;;135.98;54.63;;;-1.60;99.90;;;;;;2585721;54;20031;31
2023/12/01 06:31:27;;;;;;;154.23;65.00;;;-1.60;99.90;;;;;;2585591;54;20061;31
2023/12/01 06:34:00;;;;;;;142.63;60.63;;;-1.60;99.90;;;;;;2585605;54;20038;31
2023/12/01 06:36:35;;;;;;;102.70;45.85;;;-1.60;99.90;;;;;;2585398;54;20116;31
2023/12/01 06:39:10;;;;;;;96.20;41.92;;;-1.60;99.90;;;;;;2585704;54;20780;31
2023/12/01 06:41:43;;;;;;;91.75;38.63;;;-1.60;99.90;;;;;;2585959;54;20030;31
2023/12/01 06:44:16;;;;;;;83.15;37.10;;;-1.60;99.90;;;;;;2585756;54;20034;31
2023/12/01 06:46:52;;;;;;;86.63;36.00;;;-1.60;99.90;;;;;;2585635;54;20976;31
2023/12/01 06:49:26;;;;;;;95.25;40.63;;;-1.60;99.90;;;;;;2585550;54;20034;31
2023/12/01 06:52:00;;;;;;;82.05;37.05;;;-1.60;99.90;;;;;;2585641;54;20929;31
2023/12/01 06:54:34;;;;;;;88.68;38.33;;;-1.60;99.90;;;;;;2585641;54;20050;31
2023/12/01 06:57:11;;;;;;;97.95;43.10;;;-1.60;99.90;;;;;;2585730;54;20049;31
2023/12/01 06:59:45;;;;;;;83.65;36.50;;;-1.50;99.90;;;;;;2585199;54;20886;31
2023/12/01 07:02:22;;;;;;;87.20;37.80;;;-1.60;99.90;;;;;;2585430;54;20037;31
2023/12/01 07:04:58;;;;;;;88.63;37.38;;;-1.60;99.90;;;;;;2603964;46;20892;31
2023/12/01 07:07:33;;;;;;;101.80;41.50;;;-1.50;99.90;;;;;;2584535;54;21590;31
2023/12/01 07:10:10;;;;;;;418.92;144.75;;;-1.50;99.90;;;;;;2603577;46;20034;31
2023/12/01 07:12:46;;;;;;;263.48;105.13;;;-1.50;99.90;;;;;;2604135;46;22445;31
2023/12/01 07:15:25;;;;;;;128.35;60.30;;;-1.50;99.90;;;;;;2585573;54;21001;31
2023/12/01 07:18:04;;;;;;;190.00;74.88;;;-2.70;99.90;;;;;;2585396;54;20053;31
2023/12/01 07:20:39;;;;;;;105.67;48.77;;;-1.50;99.90;;;;;;2585569;54;20923;31
2023/12/01 07:23:14;;;;;;;79.25;36.80;;;-1.50;99.90;;;;;;2585170;54;20038;31
2023/12/01 07:25:53;;;;;;;83.70;37.43;;;-1.40;99.90;;;;;;2585400;54;21026;31
2023/12/01 07:28:28;;;;;;;75.15;35.13;;;-1.30;99.90;;;;;;2585730;54;20022;31
2023/12/01 07:31:03;;;;;;;74.80;34.35;;;-1.30;99.90;;;;;;2585207;54;20057;31
2023/12/01 07:33:41;;;;;;;74.00;34.70;;;-1.30;99.90;;;;;;2603731;46;20901;31
2023/12/01 07:36:17;;;;;;;75.50;34.25;;;-1.30;99.90;;;;;;2603872;46;20997;31
2023/12/01 07:38:54;;;;;;;87.53;37.17;;;-1.20;99.90;;;;;;2585314;54;20027;31
2023/12/01 07:41:29;;;;;;;80.05;34.05;;;-1.10;99.90;;;;;;2683850;39;22310;31
2023/12/01 07:44:03;;;;;;;73.30;32.55;;;-1.10;99.90;;;;;;2585697;54;20908;31
2023/12/01 07:46:37;;;;;;;78.80;35.60;;;-1.10;99.90;;;;;;2585858;54;20937;31
2023/12/01 07:49:15;;;;;;;110.45;49.60;;;-1.00;99.90;;;;;;2585515;54;20790;31
2023/12/01 07:51:50;;;;;;;100.95;43.65;;;-0.90;99.90;;;;;;2585392;54;20951;31
2023/12/01 07:54:26;;;;;;;75.53;36.40;;;-0.80;99.90;;;;;;2585450;54;20027;31
2023/12/01 07:57:02;;;;;;;79.95;34.90;;;-0.80;99.90;;;;;;2604018;46;20951;31
2023/12/01 07:59:37;;;;;;;73.13;33.78;;;-0.80;99.90;;;;;;2585084;54;20057;31
2023/12/01 08:02:12;;;;;;;84.20;37.15;;;-0.70;99.90;;;;;;2585646;54;20930;31
2023/12/01 08:04:49;;;;;;;81.18;36.25;;;-0.60;99.90;;;;;;2585554;54;19943;31
2023/12/01 08:07:23;;;;;;;80.70;36.60;;;-0.50;99.90;;;;;;2585744;54;22422;31
2023/12/01 08:09:59;;;;;;;74.80;35.45;;;-0.40;99.90;;;;;;2603739;46;20105;31
2023/12/01 08:12:34;;;;;;;81.60;35.30;;;-0.40;99.90;;;;;;2603821;46;20700;31
2023/12/01 08:15:12;;;;;;;72.13;34.70;;;-0.30;99.90;;;;;;2585089;54;20052;31
2023/12/01 08:17:47;;;;;;;78.88;36.30;;;-0.20;99.90;;;;;;2682709;39;21551;31
2023/12/01 08:20:25;;;;;;;76.15;35.83;;;0.00;99.90;;;;;;2585491;54;20930;31
2023/12/01 08:22:59;;;;;;;75.32;34.92;;;0.30;99.90;;;;;;2585140;54;20116;31
2023/12/01 08:25:35;;;;;;;79.17;35.67;;;0.40;99.90;;;;;;2603553;46;20030;31
2023/12/01 08:28:09;;;;;;;76.20;35.17;;;0.60;99.90;;;;;;2585089;54;20052;31
2023/12/01 08:30:47;;;;;;;73.50;35.77;;;0.70;99.90;;;;;;2585484;54;20029;31
2023/12/01 08:33:20;;;;;;;77.70;37.03;;;0.70;99.90;;;;;;2683398;39;22601;31
2023/12/01 08:35:59;;;;;;;77.20;35.90;;;0.70;99.90;;;;;;2603761;46;20846;31
2023/12/01 08:38:35;;;;;;;77.63;37.40;;;0.60;99.90;;;;;;2585124;54;20056;31
2023/12/01 08:41:11;;;;;;;78.30;36.35;;;0.60;99.90;;;;;;2603954;46;22450;31
2023/12/01 08:43:44;;;;;;;81.95;37.25;;;0.70;99.90;;;;;;2603807;46;20936;31
2023/12/01 08:46:19;;;;;;;75.15;37.00;;;0.70;99.90;;;;;;2701995;39;21153;31
2023/12/01 08:48:54;;;;;;;79.57;37.33;;;0.70;99.90;;;;;;2585461;54;22485;31
2023/12/01 08:51:31;;;;;;;81.40;39.50;;;0.70;99.90;;;;;;2584263;54;21044;31
2023/12/01 08:54:09;;;;;;;73.05;34.90;;;0.80;99.90;;;;;;2585349;54;21007;31
2023/12/01 08:56:46;;;;;;;74.38;36.08;;;0.80;99.90;;;;;;2585604;54;22519;31
2023/12/01 08:59:22;;;;;;;64.95;32.25;;;0.90;99.90;;;;;;2585369;54;20946;31
2023/12/01 09:01:58;;;;;;;73.45;35.70;;;0.90;99.90;;;;;;2585063;54;20057;31
2023/12/01 09:04:32;;;;;;;65.55;33.92;;;1.00;99.90;;;;;;2585257;54;20026;31
2023/12/01 09:07:09;;;;;;;76.63;34.85;;;1.00;99.90;;;;;;2585010;54;20034;31
2023/12/01 09:09:45;;;;;;;66.60;32.83;;;1.10;99.90;;;;;;2585200;54;20077;31
2023/12/01 09:12:20;;;;;;;65.57;33.70;;;1.20;99.90;;;;;;2585031;54;20849;31
2023/12/01 09:14:54;;;;;;;83.20;37.97;;;1.30;99.90;;;;;;2585091;54;20106;31
2023/12/01 09:17:30;;;;;;;71.82;36.05;;;1.30;99.90;;;;;;2603227;46;21051;31
2023/12/01 09:20:08;;;;;;;72.60;35.80;;;1.40;99.90;;;;;;2585278;54;20076;31
2023/12/01 09:22:46;;;;;;;75.43;36.42;;;1.40;99.90;;;;;;2585224;54;20081;31
2023/12/01 09:25:22;;;;;;;70.40;32.87;;;1.50;99.90;;;;;;2585382;54;20898;31
2023/12/01 09:27:57;;;;;;;66.65;35.40;;;1.60;99.90;;;;;;2584984;54;20889;31
2023/12/01 09:30:32;;;;;;;64.95;32.35;;;1.70;99.90;;;;;;2603550;47;22581;31
2023/12/01 09:33:09;;;;;;;67.05;34.22;;;1.80;99.90;;;;;;2584119;54;20116;31
2023/12/01 09:35:43;;;;;;;63.05;32.85;;;2.00;99.90;;;;;;2585122;54;20037;31
2023/12/01 09:38:35;;;;;;;64.18;31.27;;;2.00;99.90;;;;;;2585209;54;20503;31
2023/12/01 09:41:11;;;;;;;65.60;32.25;;;2.10;99.90;;;;;;2603665;47;20996;31
2023/12/01 09:43:48;;;;;;;64.30;31.77;;;2.10;99.90;;;;;;2683191;39;21058;31
2023/12/01 09:46:34;;;;;;;61.90;30.95;;;2.20;99.90;;;;;;2585132;54;20031;31
2023/12/01 09:49:10;;;;;;;62.67;30.33;;;2.10;99.90;;;;;;2585269;54;20906;31
2023/12/01 09:51:49;;;;;;;64.15;31.50;;;2.20;99.90;;;;;;2584993;54;20982;31
2023/12/01 09:54:26;;;;;;;66.57;31.45;;;2.20;99.90;;;;;;2584927;54;20937;31
2023/12/01 09:57:03;;;;;;;59.20;30.63;;;2.10;99.90;;;;;;2585044;54;21140;31
2023/12/01 09:59:38;;;;;;;66.05;31.35;;;2.10;99.90;;;;;;2701036;39;20428;31
2023/12/01 10:02:13;;;;;;;57.75;30.33;;;2.20;99.90;;;;;;2584669;54;20026;31
2023/12/01 10:04:52;;;;;;;67.50;32.10;;;2.20;99.90;;;;;;2603497;47;20037;31
2023/12/01 10:07:28;;;;;;;64.50;30.08;;;2.20;99.90;;;;;;2584490;54;20701;31
2023/12/01 10:10:20;;;;;;;63.17;29.85;;;2.30;99.90;;;;;;2584799;54;20118;31
2023/12/01 10:12:57;;;;;;;58.57;28.67;;;2.30;99.90;;;;;;2603317;47;20126;31
2023/12/01 10:15:32;;;;;;;62.50;29.93;;;2.40;99.90;;;;;;2584790;54;20097;31
2023/12/01 10:18:13;;;;;;;64.07;32.20;;;2.50;99.90;;;;;;2603118;47;20045;31
2023/12/01 10:21:02;;;;;;;61.50;30.03;;;2.50;99.90;;;;;;2584884;54;20061;31
2023/12/01 10:23:41;;;;;;;67.43;29.37;;;2.50;99.90;;;;;;2584781;54;20053;31
2023/12/01 10:26:18;;;;;;;62.05;30.48;;;2.50;99.90;;;;;;2603715;47;20234;31
2023/12/01 10:28:57;;;;;;;65.27;30.93;;;2.60;99.90;;;;;;2585886;54;20029;31
2023/12/01 10:31:35;;;;;;;63.00;29.20;;;2.60;99.90;;;;;;2585722;54;21271;31
2023/12/01 10:34:14;;;;;;;50.00;26.35;;;2.60;99.90;;;;;;2585515;54;20952;31
2023/12/01 10:36:53;;;;;;;57.47;29.30;;;2.60;99.90;;;;;;2585763;54;19942;31
2023/12/01 10:39:31;;;;;;;68.57;32.17;;;2.60;99.90;;;;;;2604168;46;20027;31
2023/12/01 10:42:07;;;;;;;59.55;28.67;;;2.50;99.90;;;;;;2585692;54;20046;31
2023/12/01 10:44:43;;;;;;;64.33;32.20;;;2.50;99.90;;;;;;2585922;54;20953;31
2023/12/01 10:47:20;;;;;;;65.07;30.40;;;2.40;99.90;;;;;;2604023;46;20926;31
2023/12/01 10:49:59;;;;;;;60.58;30.35;;;2.50;99.90;;;;;;2585555;54;21017;31
2023/12/01 10:52:36;;;;;;;61.70;30.10;;;2.40;99.90;;;;;;2585676;54;20898;31
2023/12/01 10:55:13;;;;;;;59.80;29.40;;;2.40;99.90;;;;;;2585625;54;20036;31
2023/12/01 10:57:51;;;;;;;58.35;30.45;;;2.40;99.90;;;;;;2604124;46;20176;31
2023/12/01 11:00:32;;;;;;;62.97;31.50;;;2.40;99.90;;;;;;2604223;46;19935;31
2023/12/01 11:03:10;;;;;;;61.85;32.50;;;2.40;99.90;;;;;;2585902;54;22409;31
2023/12/01 11:05:48;;;;;;;62.60;30.65;;;2.40;99.90;;;;;;2585683;54;20034;31
2023/12/01 11:08:34;;;;;;;53.05;28.20;;;2.50;99.90;;;;;;2584499;54;20033;31
2023/12/01 11:11:16;;;;;;;61.20;30.35;;;2.40;99.90;;;;;;2585157;54;20937;31
2023/12/01 11:16:25;;;;;;;59.70;28.10;;;2.40;99.90;;;;;;2584596;54;20030;31
2023/12/01 11:19:03;;;;;;;53.25;26.98;;;2.30;99.90;;;;;;2584619;54;20305;31
2023/12/01 11:21:37;;;;;;;58.25;27.45;;;2.30;99.90;;;;;;2584583;54;20873;31
2023/12/01 11:24:31;;;;;;;56.83;28.87;;;2.20;99.90;;;;;;2585572;54;20838;31
2023/12/01 11:27:10;;;;;;;58.47;28.83;;;2.20;99.90;;;;;;2585820;54;20085;31
2023/12/01 11:29:45;;;;;;;55.22;28.50;;;1.50;99.90;;;;;;2604152;46;20121;31
2023/12/01 11:32:33;;;;;;;61.50;28.70;;;2.20;99.90;;;;;;2585645;54;20088;31
2023/12/01 11:35:11;;;;;;;60.35;30.15;;;1.20;99.90;;;;;;2603810;46;20049;31
2023/12/01 11:38:03;;;;;;;59.83;29.87;;;2.10;99.90;;;;;;2584358;54;20827;31
2023/12/01 11:40:42;;;;;;;55.87;28.80;;;2.10;99.90;;;;;;2604333;46;20037;31
2023/12/01 11:43:19;;;;;;;58.95;29.10;;;2.00;99.90;;;;;;2585331;54;21007;31
2023/12/01 11:46:12;;;;;;;54.20;27.85;;;2.00;99.90;;;;;;2585667;54;20091;31
2023/12/01 11:48:52;;;;;;;56.30;28.10;;;2.00;99.90;;;;;;2585508;54;20890;31
2023/12/01 11:51:30;;;;;;;67.90;30.67;;;2.00;99.90;;;;;;2585320;54;20804;31
2023/12/01 11:54:06;;;;;;;58.63;30.98;;;2.00;99.90;;;;;;2585724;54;20906;31
2023/12/01 11:56:40;;;;;;;54.67;28.00;;;2.00;99.90;;;;;;2585533;54;20086;31
2023/12/01 11:59:19;;;;;;;59.10;28.70;;;2.00;99.90;;;;;;2585318;54;20026;31
2023/12/01 12:01:56;;;;;;;55.83;27.40;;;2.00;99.90;;;;;;2590234;46;20951;31
2023/12/01 12:04:37;;;;;;;65.00;30.45;;;2.00;99.90;;;;;;2585427;54;21019;31
2023/12/01 12:07:14;;;;;;;62.00;29.70;;;1.90;99.90;;;;;;2603922;46;20750;31
2023/12/01 12:09:49;;;;;;;57.92;29.73;;;1.90;99.90;;;;;;2584912;54;20969;31
2023/12/01 12:12:25;;;;;;;61.88;30.83;;;1.90;99.90;;;;;;2585441;54;20027;31
2023/12/01 12:15:08;;;;;;;64.83;29.20;;;1.90;99.90;;;;;;2585273;54;20982;31
2023/12/01 12:17:43;;;;;;;53.87;29.00;;;1.90;99.90;;;;;;2603525;46;20027;31
2023/12/01 12:20:30;;;;;;;58.20;28.50;;;1.90;99.90;;;;;;2585249;54;20157;31
2023/12/01 12:23:06;;;;;;;64.20;30.75;;;1.90;99.90;;;;;;2585392;54;20894;31
2023/12/01 12:25:42;;;;;;;69.50;32.40;;;1.90;99.90;;;;;;2585514;54;20026;31
2023/12/01 12:28:18;;;;;;;;;;;1.90;99.90;;;;;;2603997;46;21142;31
2023/12/01 12:30:57;;;;;;;75.65;32.00;;;1.90;99.90;;;;;;2596060;46;19965;31
2023/12/01 12:33:33;;;;;;;72.07;32.85;;;1.80;99.90;;;;;;2585409;54;20030;31
2023/12/01 12:36:14;;;;;;;73.35;33.75;;;1.80;99.90;;;;;;2585606;54;20037;31
2023/12/01 12:38:51;;;;;;;66.65;32.83;;;1.70;99.90;;;;;;2585158;54;20923;31
2023/12/01 12:41:29;;;;;;;82.67;37.07;;;1.70;99.90;;;;;;2683141;39;21363;31
2023/12/01 12:44:04;;;;;;;84.47;38.10;;;1.60;99.90;;;;;;2585411;54;20033;31
2023/12/01 12:46:42;;;;;;;82.80;37.63;;;1.60;99.90;;;;;;2683561;39;22256;31
2023/12/01 12:49:19;;;;;;;74.00;35.20;;;1.40;99.90;;;;;;2584879;54;20027;31
2023/12/01 12:51:56;;;;;;;77.78;37.03;;;1.50;99.90;;;;;;2585171;54;20035;31
2023/12/01 12:54:31;;;;;;;92.78;43.13;;;1.50;99.90;;;;;;2585265;54;20780;31
2023/12/01 12:57:07;;;;;;;79.70;37.77;;;1.50;99.90;;;;;;2603740;46;22414;31
2023/12/01 12:59:45;;;;;;;80.73;38.30;;;1.50;99.90;;;;;;2584233;54;20238;31
2023/12/01 13:02:19;;;;;;;69.90;32.50;;;0.60;99.90;;;;;;2585516;54;20975;31
2023/12/01 13:04:55;;;;;;;69.03;33.35;;;1.50;99.90;;;;;;2603659;46;20149;31
2023/12/01 13:07:33;;;;;;;;;;;1.40;99.90;;;;;;2683722;39;21200;31
2023/12/01 13:10:11;;;;;;;70.32;35.10;;;1.50;99.90;;;;;;2585233;54;20416;31
2023/12/01 13:12:46;;;;;;;;;;;1.40;99.90;;;;;;2584704;54;20872;31
2023/12/01 13:15:24;;;;;;;62.00;26.33;;;1.40;99.90;;;;;;2602576;46;20844;31
2023/12/01 13:17:59;;;;;;;55.85;25.45;;;1.40;99.90;;;;;;2584410;54;20905;31
2023/12/01 13:20:34;;;;;;;56.78;27.52;;;0.50;99.90;;;;;;2683323;39;22231;31
2023/12/01 13:23:15;;;;;;;55.97;25.63;;;1.30;99.90;;;;;;2603825;46;20034;31
2023/12/01 13:25:51;;;;;;;61.67;27.45;;;1.40;99.90;;;;;;2585172;54;20042;31
2023/12/01 13:28:28;;;;;;;55.90;26.92;;;1.30;99.90;;;;;;2603690;47;20053;31